sensor_id;sensor_type;location;lat;lon;timestamp;pressure;altitude;pressure_sealevel;temperature;humidity
71938;BME280;59810;48.800;9.086;2023-06-04T00:00:55;97605.75;;;14.10;68.27
71938;BME280;59810;48.800;9.086;2023-06-04T00:03:22;97605.75;;;14.10;68.62
71938;BME280;59810;48.800;9.086;2023-06-04T00:05:48;97613.09;;;14.05;68.37
71938;BME280;59810;48.800;9.086;2023-06-04T00:08:15;97611.47;;;14.09;68.79
71938;BME280;59810;48.800;9.086;2023-06-04T00:10:41;97607.38;;;14.11;69.20
71938;BME280;59810;48.800;9.086;2023-06-04T00:13:06;97608.19;;;14.12;68.67
71938;BME280;59810;48.800;9.086;2023-06-04T00:15:31;97604.66;;;13.96;69.14
71938;BME280;59810;48.800;9.086;2023-06-04T00:17:57;97616.59;;;13.95;69.17
71938;BME280;59810;48.800;9.086;2023-06-04T00:20:24;97609.28;;;13.90;68.88
71938;BME280;59810;48.800;9.086;2023-06-04T00:22:50;97606.84;;;13.84;69.39
71938;BME280;59810;48.800;9.086;2023-06-04T00:25:18;97608.75;;;13.83;69.45
71938;BME280;59810;48.800;9.086;2023-06-04T00:27:43;97606.56;;;13.70;69.80
71938;BME280;59810;48.800;9.086;2023-06-04T00:30:09;97600.56;;;13.63;70.09
71938;BME280;59810;48.800;9.086;2023-06-04T00:32:34;97608.72;;;13.63;70.28
71938;BME280;59810;48.800;9.086;2023-06-04T00:35:00;97610.63;;;13.57;70.15
71938;BME280;59810;48.800;9.086;2023-06-04T00:37:28;97606.28;;;13.56;70.54
71938;BME280;59810;48.800;9.086;2023-06-04T00:39:54;97613.59;;;13.51;70.19
71938;BME280;59810;48.800;9.086;2023-06-04T00:42:19;97611.16;;;13.49;70.59
71938;BME280;59810;48.800;9.086;2023-06-04T00:44:45;97607.63;;;13.44;70.62
71938;BME280;59810;48.800;9.086;2023-06-04T00:47:11;97612.78;;;13.40;70.28
71938;BME280;59810;48.800;9.086;2023-06-04T00:49:40;97620.63;;;13.42;70.47
71938;BME280;59810;48.800;9.086;2023-06-04T00:52:09;97625.25;;;13.36;70.87
71938;BME280;59810;48.800;9.086;2023-06-04T00:54:35;97623.09;;;13.43;70.45
71938;BME280;59810;48.800;9.086;2023-06-04T00:57:01;97627.13;;;13.35;70.83
71938;BME280;59810;48.800;9.086;2023-06-04T00:59:31;97625.25;;;13.41;70.74
71938;BME280;59810;48.800;9.086;2023-06-04T01:07:35;97638.00;;;13.35;71.10
71938;BME280;59810;48.800;9.086;2023-06-04T01:10:00;97642.81;;;13.28;71.10
71938;BME280;59810;48.800;9.086;2023-06-04T01:12:26;97631.16;;;13.23;70.81
71938;BME280;59810;48.800;9.086;2023-06-04T01:14:51;97627.84;;;13.16;71.01
71938;BME280;59810;48.800;9.086;2023-06-04T01:17:25;97630.88;;;13.19;70.85
71938;BME280;59810;48.800;9.086;2023-06-04T01:27:56;97633.16;;;12.90;72.68
71938;BME280;59810;48.800;9.086;2023-06-04T01:30:26;97627.19;;;12.83;72.20
71938;BME280;59810;48.800;9.086;2023-06-04T01:32:58;97626.34;;;12.77;72.27
71938;BME280;59810;48.800;9.086;2023-06-04T01:35:25;97630.13;;;12.76;73.37
71938;BME280;59810;48.800;9.086;2023-06-04T01:37:51;97623.63;;;12.72;72.54
71938;BME280;59810;48.800;9.086;2023-06-04T01:40:17;97622.28;;;12.75;72.96
71938;BME280;59810;48.800;9.086;2023-06-04T01:42:42;97612.19;;;12.65;72.78
71938;BME280;59810;48.800;9.086;2023-06-04T01:45:08;97613.34;;;12.74;72.70
71938;BME280;59810;48.800;9.086;2023-06-04T01:47:36;97613.06;;;12.76;72.00
71938;BME280;59810;48.800;9.086;2023-06-04T01:50:04;97626.28;;;12.67;72.20
71938;BME280;59810;48.800;9.086;2023-06-04T01:52:30;97623.53;;;12.57;72.67
71938;BME280;59810;48.800;9.086;2023-06-04T01:54:56;97629.47;;;12.54;72.55
71938;BME280;59810;48.800;9.086;2023-06-04T01:57:24;97623.78;;;12.51;72.47
71938;BME280;59810;48.800;9.086;2023-06-04T01:59:50;97624.28;;;12.48;72.89
71938;BME280;59810;48.800;9.086;2023-06-04T02:02:16;97624.00;;;12.44;73.12
71938;BME280;59810;48.800;9.086;2023-06-04T02:04:41;97630.50;;;12.43;72.88
71938;BME280;59810;48.800;9.086;2023-06-04T02:07:12;97624.25;;;12.37;73.16
71938;BME280;59810;48.800;9.086;2023-06-04T02:09:43;97621.28;;;12.39;73.21
71938;BME280;59810;48.800;9.086;2023-06-04T02:12:08;97630.22;;;12.39;73.06
71938;BME280;59810;48.800;9.086;2023-06-04T02:14:34;97632.09;;;12.39;73.48
71938;BME280;59810;48.800;9.086;2023-06-04T02:16:59;97628.25;;;12.35;74.29
71938;BME280;59810;48.800;9.086;2023-06-04T02:19:24;97629.59;;;12.32;73.59
71938;BME280;59810;48.800;9.086;2023-06-04T02:21:53;97622.78;;;12.25;74.28
71938;BME280;59810;48.800;9.086;2023-06-04T02:24:18;97631.75;;;12.30;74.99
71938;BME280;59810;48.800;9.086;2023-06-04T02:26:44;97628.19;;;12.25;73.44
71938;BME280;59810;48.800;9.086;2023-06-04T02:29:10;97638.53;;;12.33;73.36
71938;BME280;59810;48.800;9.086;2023-06-04T02:31:35;97636.34;;;12.30;73.58
71938;BME280;59810;48.800;9.086;2023-06-04T02:34:03;97640.81;;;12.46;73.09
71938;BME280;59810;48.800;9.086;2023-06-04T02:36:29;97639.22;;;12.55;72.55
71938;BME280;59810;48.800;9.086;2023-06-04T02:38:55;97644.03;;;12.43;73.27
71938;BME280;59810;48.800;9.086;2023-06-04T02:41:21;97639.16;;;12.40;72.75
71938;BME280;59810;48.800;9.086;2023-06-04T02:43:46;97649.78;;;12.52;71.98
71938;BME280;59810;48.800;9.086;2023-06-04T02:46:12;97641.16;;;12.60;71.31
71938;BME280;59810;48.800;9.086;2023-06-04T02:48:42;97642.78;;;12.61;70.52
71938;BME280;59810;48.800;9.086;2023-06-04T02:51:13;97632.94;;;12.44;72.23
71938;BME280;59810;48.800;9.086;2023-06-04T02:53:38;97633.19;;;12.38;72.60
71938;BME280;59810;48.800;9.086;2023-06-04T02:56:04;97643.59;;;12.19;73.18
71938;BME280;59810;48.800;9.086;2023-06-04T02:58:29;97636.09;;;12.31;72.88
71938;BME280;59810;48.800;9.086;2023-06-04T03:00:56;97641.25;;;12.33;72.53
71938;BME280;59810;48.800;9.086;2023-06-04T03:03:22;97644.56;;;12.40;72.21
71938;BME280;59810;48.800;9.086;2023-06-04T03:05:48;97630.63;;;12.21;73.51
71938;BME280;59810;48.800;9.086;2023-06-04T03:08:14;97641.44;;;12.21;73.09
71938;BME280;59810;48.800;9.086;2023-06-04T03:10:39;97641.41;;;12.16;73.62
71938;BME280;59810;48.800;9.086;2023-06-04T03:13:07;97650.28;;;12.06;73.48
71938;BME280;59810;48.800;9.086;2023-06-04T03:15:32;97653.50;;;12.03;74.54
71938;BME280;59810;48.800;9.086;2023-06-04T03:17:58;97646.44;;;12.02;73.85
71938;BME280;59810;48.800;9.086;2023-06-04T03:20:25;97652.81;;;11.86;74.76
71938;BME280;59810;48.800;9.086;2023-06-04T03:22:51;97653.31;;;11.83;75.58
71938;BME280;59810;48.800;9.086;2023-06-04T03:25:17;97654.84;;;11.74;75.54
71938;BME280;59810;48.800;9.086;2023-06-04T03:27:42;97657.53;;;11.74;75.41
71938;BME280;59810;48.800;9.086;2023-06-04T03:30:10;97657.63;;;11.79;75.10
71938;BME280;59810;48.800;9.086;2023-06-04T03:32:38;97660.91;;;11.86;75.03
71938;BME280;59810;48.800;9.086;2023-06-04T03:35:03;97659.91;;;11.97;74.64
71938;BME280;59810;48.800;9.086;2023-06-04T03:37:29;97656.38;;;11.92;75.27
71938;BME280;59810;48.800;9.086;2023-06-04T03:39:55;97653.88;;;11.85;75.36
71938;BME280;59810;48.800;9.086;2023-06-04T03:42:20;97663.63;;;11.86;74.99
71938;BME280;59810;48.800;9.086;2023-06-04T03:44:46;97662.28;;;11.89;75.01
71938;BME280;59810;48.800;9.086;2023-06-04T03:47:11;97657.47;;;11.96;74.19
71938;BME280;59810;48.800;9.086;2023-06-04T03:49:39;97661.47;;;11.88;75.44
71938;BME280;59810;48.800;9.086;2023-06-04T03:52:04;97657.41;;;11.86;74.82
71938;BME280;59810;48.800;9.086;2023-06-04T03:54:30;97655.59;;;11.96;74.35
71938;BME280;59810;48.800;9.086;2023-06-04T03:56:55;97665.56;;;11.91;75.49
71938;BME280;59810;48.800;9.086;2023-06-04T03:59:21;97660.19;;;11.96;74.91
71938;BME280;59810;48.800;9.086;2023-06-04T04:01:46;97666.97;;;11.98;74.49
71938;BME280;59810;48.800;9.086;2023-06-04T04:04:11;97667.59;;;12.05;74.26
71938;BME280;59810;48.800;9.086;2023-06-04T04:06:37;97675.16;;;12.03;75.57
71938;BME280;59810;48.800;9.086;2023-06-04T04:09:06;97665.97;;;12.04;74.27
71938;BME280;59810;48.800;9.086;2023-06-04T04:11:34;97667.06;;;12.08;74.50
71938;BME280;59810;48.800;9.086;2023-06-04T04:13:59;97663.69;;;11.96;74.78
71938;BME280;59810;48.800;9.086;2023-06-04T04:16:28;97672.94;;;12.00;74.23
71938;BME280;59810;48.800;9.086;2023-06-04T04:18:53;97675.19;;;12.08;73.67
71938;BME280;59810;48.800;9.086;2023-06-04T04:21:19;97679.59;;;12.20;73.32
71938;BME280;59810;48.800;9.086;2023-06-04T04:23:46;97683.38;;;12.19;74.13
71938;BME280;59810;48.800;9.086;2023-06-04T04:26:13;97685.09;;;12.30;73.46
71938;BME280;59810;48.800;9.086;2023-06-04T04:28:41;97681.38;;;12.36;72.63
71938;BME280;59810;48.800;9.086;2023-06-04T04:31:07;97680.06;;;12.43;72.12
71938;BME280;59810;48.800;9.086;2023-06-04T04:33:36;97685.78;;;12.52;71.26
71938;BME280;59810;48.800;9.086;2023-06-04T04:36:05;97695.31;;;12.60;71.16
71938;BME280;59810;48.800;9.086;2023-06-04T04:38:34;97692.59;;;12.60;70.97
71938;BME280;59810;48.800;9.086;2023-06-04T04:41:00;97686.63;;;12.58;72.06
71938;BME280;59810;48.800;9.086;2023-06-04T04:43:29;97690.41;;;12.57;72.22
71938;BME280;59810;48.800;9.086;2023-06-04T04:45:55;97693.69;;;12.59;70.24
71938;BME280;59810;48.800;9.086;2023-06-04T04:48:20;97695.41;;;12.70;69.52
71938;BME280;59810;48.800;9.086;2023-06-04T04:50:47;97693.81;;;12.79;69.02
71938;BME280;59810;48.800;9.086;2023-06-04T04:53:12;97705.91;;;13.08;83.62
71938;BME280;59810;48.800;9.086;2023-06-04T04:55:40;97694.38;;;13.33;82.71
71938;BME280;59810;48.800;9.086;2023-06-04T04:58:05;97697.16;;;13.54;74.21
71938;BME280;59810;48.800;9.086;2023-06-04T05:00:30;97700.47;;;13.71;74.44
71938;BME280;59810;48.800;9.086;2023-06-04T05:02:56;97693.41;;;13.80;71.88
71938;BME280;59810;48.800;9.086;2023-06-04T05:05:21;97696.13;;;13.85;71.64
71938;BME280;59810;48.800;9.086;2023-06-04T05:07:47;97706.72;;;13.92;70.54
71938;BME280;59810;48.800;9.086;2023-06-04T05:10:12;97706.44;;;13.93;68.18
71938;BME280;59810;48.800;9.086;2023-06-04T05:12:38;97715.16;;;14.00;69.27
71938;BME280;59810;48.800;9.086;2023-06-04T05:15:03;97707.84;;;14.06;69.61
71938;BME280;59810;48.800;9.086;2023-06-04T05:17:29;97709.72;;;14.26;68.90
71938;BME280;59810;48.800;9.086;2023-06-04T05:19:57;97706.50;;;14.39;67.07
71938;BME280;59810;48.800;9.086;2023-06-04T05:22:28;97714.91;;;14.58;66.30
71938;BME280;59810;48.800;9.086;2023-06-04T05:24:54;97716.25;;;14.60;64.67
71938;BME280;59810;48.800;9.086;2023-06-04T05:27:19;97729.31;;;14.33;61.57
71938;BME280;59810;48.800;9.086;2023-06-04T05:29:45;97727.63;;;13.91;62.73
71938;BME280;59810;48.800;9.086;2023-06-04T05:32:10;97728.16;;;13.78;64.03
71938;BME280;59810;48.800;9.086;2023-06-04T05:34:36;97731.38;;;13.70;62.87
71938;BME280;59810;48.800;9.086;2023-06-04T05:37:01;97738.38;;;13.56;63.93
71938;BME280;59810;48.800;9.086;2023-06-04T05:39:29;97730.75;;;13.48;63.31
71938;BME280;59810;48.800;9.086;2023-06-04T05:41:54;97737.53;;;13.40;63.37
71938;BME280;59810;48.800;9.086;2023-06-04T05:44:19;97735.63;;;13.35;62.58
71938;BME280;59810;48.800;9.086;2023-06-04T05:46:45;97734.53;;;13.36;62.63
71938;BME280;59810;48.800;9.086;2023-06-04T05:49:10;97732.91;;;13.35;64.30
71938;BME280;59810;48.800;9.086;2023-06-04T05:51:35;97741.53;;;13.32;63.42
71938;BME280;59810;48.800;9.086;2023-06-04T05:54:03;97732.09;;;13.40;64.20
71938;BME280;59810;48.800;9.086;2023-06-04T05:56:29;97736.72;;;13.45;63.16
71938;BME280;59810;48.800;9.086;2023-06-04T05:58:54;97731.03;;;13.51;65.05
71938;BME280;59810;48.800;9.086;2023-06-04T06:01:22;97741.38;;;13.59;63.99
71938;BME280;59810;48.800;9.086;2023-06-04T06:03:47;97737.91;;;13.69;63.03
71938;BME280;59810;48.800;9.086;2023-06-04T06:06:12;97743.34;;;13.79;61.08
71938;BME280;59810;48.800;9.086;2023-06-04T06:08:40;97741.19;;;13.86;62.82
71938;BME280;59810;48.800;9.086;2023-06-04T06:11:08;97743.09;;;13.96;62.52
71938;BME280;59810;48.800;9.086;2023-06-04T06:13:33;97746.66;;;14.07;62.04
71938;BME280;59810;48.800;9.086;2023-06-04T06:16:01;97743.13;;;14.11;59.02
71938;BME280;59810;48.800;9.086;2023-06-04T06:18:27;97746.66;;;14.17;59.27
71938;BME280;59810;48.800;9.086;2023-06-04T06:20:52;97746.44;;;14.33;61.17
71938;BME280;59810;48.800;9.086;2023-06-04T06:23:20;97749.94;;;14.39;59.39
71938;BME280;59810;48.800;9.086;2023-06-04T06:25:49;97752.16;;;14.47;60.03
71938;BME280;59810;48.800;9.086;2023-06-04T06:28:17;97756.47;;;14.58;60.39
71938;BME280;59810;48.800;9.086;2023-06-04T06:30:43;97748.88;;;14.71;59.93
71938;BME280;59810;48.800;9.086;2023-06-04T06:33:09;97755.38;;;14.80;59.78
71938;BME280;59810;48.800;9.086;2023-06-04T06:35:34;97753.72;;;14.94;57.41
71938;BME280;59810;48.800;9.086;2023-06-04T06:38:05;97756.72;;;15.03;58.54
71938;BME280;59810;48.800;9.086;2023-06-04T06:40:30;97757.25;;;15.10;57.93
71938;BME280;59810;48.800;9.086;2023-06-04T06:42:56;97755.56;;;15.24;57.17
71938;BME280;59810;48.800;9.086;2023-06-04T06:45:21;97762.91;;;15.29;57.24
71938;BME280;59810;48.800;9.086;2023-06-04T06:47:47;97758.81;;;15.36;57.76
71938;BME280;59810;48.800;9.086;2023-06-04T06:50:12;97761.75;;;15.45;57.10
71938;BME280;59810;48.800;9.086;2023-06-04T06:52:38;97765.56;;;15.44;55.58
71938;BME280;59810;48.800;9.086;2023-06-04T06:55:07;97760.41;;;15.42;54.39
71938;BME280;59810;48.800;9.086;2023-06-04T06:57:32;97762.53;;;15.61;55.70
71938;BME280;59810;48.800;9.086;2023-06-04T06:59:58;97760.88;;;15.70;55.80
71938;BME280;59810;48.800;9.086;2023-06-04T07:02:23;97759.44;;;15.82;56.02
71938;BME280;59810;48.800;9.086;2023-06-04T07:04:50;97759.94;;;15.90;54.68
71938;BME280;59810;48.800;9.086;2023-06-04T07:07:15;97765.31;;;16.05;53.81
71938;BME280;59810;48.800;9.086;2023-06-04T07:09:41;97762.75;;;16.18;54.18
71938;BME280;59810;48.800;9.086;2023-06-04T07:12:07;97767.63;;;16.27;53.32
71938;BME280;59810;48.800;9.086;2023-06-04T07:14:32;97776.59;;;16.32;53.00
71938;BME280;59810;48.800;9.086;2023-06-04T07:16:57;97774.97;;;16.31;51.16
71938;BME280;59810;48.800;9.086;2023-06-04T07:19:23;97776.31;;;16.34;52.37
71938;BME280;59810;48.800;9.086;2023-06-04T07:21:52;97779.03;;;16.34;51.79
71938;BME280;59810;48.800;9.086;2023-06-04T07:24:17;97779.22;;;16.42;52.29
71938;BME280;59810;48.800;9.086;2023-06-04T07:26:43;97780.75;;;16.59;53.08
71938;BME280;59810;48.800;9.086;2023-06-04T07:29:08;97781.75;;;16.73;51.65
71938;BME280;59810;48.800;9.086;2023-06-04T07:31:33;97779.53;;;16.75;50.35
71938;BME280;59810;48.800;9.086;2023-06-04T07:34:01;97788.38;;;16.91;51.03
71938;BME280;59810;48.800;9.086;2023-06-04T07:36:27;97784.19;;;17.03;50.06
71938;BME280;59810;48.800;9.086;2023-06-04T07:38:55;97786.63;;;17.05;48.62
71938;BME280;59810;48.800;9.086;2023-06-04T07:41:20;97781.31;;;17.19;50.04
71938;BME280;59810;48.800;9.086;2023-06-04T07:43:45;97776.88;;;17.28;52.84
71938;BME280;59810;48.800;9.086;2023-06-04T07:46:11;97770.47;;;17.37;51.11
71938;BME280;59810;48.800;9.086;2023-06-04T07:48:42;97778.47;;;17.53;51.32
71938;BME280;59810;48.800;9.086;2023-06-04T07:51:08;97773.50;;;17.60;50.11
71938;BME280;59810;48.800;9.086;2023-06-04T07:53:33;97769.31;;;17.67;51.45
71938;BME280;59810;48.800;9.086;2023-06-04T07:55:58;97773.53;;;17.79;52.35
71938;BME280;59810;48.800;9.086;2023-06-04T07:58:24;97773.47;;;17.84;53.11
71938;BME280;59810;48.800;9.086;2023-06-04T08:00:50;97771.34;;;17.81;49.22
71938;BME280;59810;48.800;9.086;2023-06-04T08:03:15;97767.13;;;17.88;51.02
71938;BME280;59810;48.800;9.086;2023-06-04T08:05:41;97769.19;;;17.78;48.89
71938;BME280;59810;48.800;9.086;2023-06-04T08:08:06;97760.84;;;17.88;49.75
71938;BME280;59810;48.800;9.086;2023-06-04T08:10:32;97759.16;;;17.73;47.80
71938;BME280;59810;48.800;9.086;2023-06-04T08:12:57;97762.09;;;17.77;48.41
71938;BME280;59810;48.800;9.086;2023-06-04T08:15:23;97758.00;;;17.98;54.60
71938;BME280;59810;48.800;9.086;2023-06-04T08:17:48;97762.66;;;17.97;49.85
71938;BME280;59810;48.800;9.086;2023-06-04T08:20:16;97762.81;;;18.06;50.54
71938;BME280;59810;48.800;9.086;2023-06-04T08:22:44;97760.13;;;18.20;51.97
71938;BME280;59810;48.800;9.086;2023-06-04T08:25:11;97754.00;;;18.28;51.62
71938;BME280;59810;48.800;9.086;2023-06-04T08:27:39;97749.28;;;18.33;49.77
71938;BME280;59810;48.800;9.086;2023-06-04T08:30:05;97759.03;;;18.40;48.83
71938;BME280;59810;48.800;9.086;2023-06-04T08:32:30;97753.16;;;18.46;49.84
71938;BME280;59810;48.800;9.086;2023-06-04T08:34:56;97761.53;;;18.55;48.44
71938;BME280;59810;48.800;9.086;2023-06-04T08:37:21;97761.53;;;18.55;47.09
71938;BME280;59810;48.800;9.086;2023-06-04T08:39:46;97758.41;;;18.61;48.30
71938;BME280;59810;48.800;9.086;2023-06-04T08:42:22;97754.72;;;18.71;48.22
71938;BME280;59810;48.800;9.086;2023-06-04T08:44:51;97755.56;;;18.85;47.37
71938;BME280;59810;48.800;9.086;2023-06-04T08:47:18;97756.59;;;18.89;48.29
71938;BME280;59810;48.800;9.086;2023-06-04T08:49:49;97761.47;;;18.92;47.66
71938;BME280;59810;48.800;9.086;2023-06-04T08:52:17;97759.66;;;19.15;46.97
71938;BME280;59810;48.800;9.086;2023-06-04T08:54:48;97764.78;;;19.22;47.28
71938;BME280;59810;48.800;9.086;2023-06-04T08:57:15;97758.78;;;19.20;45.48
71938;BME280;59810;48.800;9.086;2023-06-04T08:59:41;97759.59;;;19.34;45.64
71938;BME280;59810;48.800;9.086;2023-06-04T09:02:07;97762.44;;;19.43;46.82
71938;BME280;59810;48.800;9.086;2023-06-04T09:04:33;97758.16;;;19.50;47.15
71938;BME280;59810;48.800;9.086;2023-06-04T09:07:02;97761.66;;;19.56;46.32
71938;BME280;59810;48.800;9.086;2023-06-04T09:09:28;97759.75;;;19.56;45.71
71938;BME280;59810;48.800;9.086;2023-06-04T09:11:56;97769.59;;;19.57;45.78
71938;BME280;59810;48.800;9.086;2023-06-04T09:14:23;97759.03;;;19.65;45.38
71938;BME280;59810;48.800;9.086;2023-06-04T09:16:50;97769.78;;;19.61;45.16
71938;BME280;59810;48.800;9.086;2023-06-04T09:19:16;97771.69;;;19.74;45.04
71938;BME280;59810;48.800;9.086;2023-06-04T09:22:00;97777.19;;;19.88;46.60
71938;BME280;59810;48.800;9.086;2023-06-04T09:24:40;97769.72;;;20.02;45.66
71938;BME280;59810;48.800;9.086;2023-06-04T09:27:16;97768.38;;;20.13;45.80
71938;BME280;59810;48.800;9.086;2023-06-04T09:29:56;97776.09;;;20.25;45.83
71938;BME280;59810;48.800;9.086;2023-06-04T09:32:27;97776.91;;;20.26;43.93
71938;BME280;59810;48.800;9.086;2023-06-04T09:35:07;97773.22;;;20.30;42.99
71938;BME280;59810;48.800;9.086;2023-06-04T09:37:34;97770.59;;;20.25;42.15
71938;BME280;59810;48.800;9.086;2023-06-04T09:40:02;97770.03;;;20.37;44.33
71938;BME280;59810;48.800;9.086;2023-06-04T09:42:41;97774.72;;;20.50;44.10
71938;BME280;59810;48.800;9.086;2023-06-04T09:45:10;97768.63;;;20.53;43.92
71938;BME280;59810;48.800;9.086;2023-06-04T09:47:42;97763.19;;;20.62;44.09
71938;BME280;59810;48.800;9.086;2023-06-04T09:50:08;97767.84;;;20.61;43.03
71938;BME280;59810;48.800;9.086;2023-06-04T09:52:34;97772.84;;;20.81;41.65
71938;BME280;59810;48.800;9.086;2023-06-04T09:55:03;97769.84;;;20.92;42.39
71938;BME280;59810;48.800;9.086;2023-06-04T09:57:29;97765.38;;;21.04;43.29
71938;BME280;59810;48.800;9.086;2023-06-04T09:59:55;97773.31;;;21.06;42.10
71938;BME280;59810;48.800;9.086;2023-06-04T10:02:33;97772.03;;;21.12;42.83
71938;BME280;59810;48.800;9.086;2023-06-04T10:04:59;97773.16;;;21.11;40.76
71938;BME280;59810;48.800;9.086;2023-06-04T10:07:25;97773.31;;;21.28;43.23
71938;BME280;59810;48.800;9.086;2023-06-04T10:09:52;97777.25;;;21.44;43.13
71938;BME280;59810;48.800;9.086;2023-06-04T10:12:26;97772.97;;;21.61;42.09
71938;BME280;59810;48.800;9.086;2023-06-04T10:14:57;97767.50;;;21.78;42.07
71938;BME280;59810;48.800;9.086;2023-06-04T10:17:25;97765.75;;;21.82;39.65
71938;BME280;59810;48.800;9.086;2023-06-04T10:19:53;97764.19;;;22.07;40.48
71938;BME280;59810;48.800;9.086;2023-06-04T10:22:20;97771.91;;;21.96;39.08
71938;BME280;59810;48.800;9.086;2023-06-04T10:24:46;97761.03;;;21.74;37.52
71938;BME280;59810;48.800;9.086;2023-06-04T10:27:12;97757.03;;;21.97;39.27
71938;BME280;59810;48.800;9.086;2023-06-04T10:29:38;97758.53;;;22.03;39.25
71938;BME280;59810;48.800;9.086;2023-06-04T10:32:04;97749.19;;;22.22;40.06
71938;BME280;59810;48.800;9.086;2023-06-04T10:34:30;97752.25;;;22.29;38.26
71938;BME280;59810;48.800;9.086;2023-06-04T10:36:59;97755.50;;;22.40;38.56
71938;BME280;59810;48.800;9.086;2023-06-04T10:39:28;97748.06;;;22.57;39.45
71938;BME280;59810;48.800;9.086;2023-06-04T10:42:06;97741.25;;;22.81;36.47
71938;BME280;59810;48.800;9.086;2023-06-04T10:44:43;97740.09;;;22.90;37.73
71938;BME280;59810;48.800;9.086;2023-06-04T10:47:18;97744.31;;;22.88;37.16
71938;BME280;59810;48.800;9.086;2023-06-04T10:49:43;97741.34;;;23.10;38.13
71938;BME280;59810;48.800;9.086;2023-06-04T10:52:11;97747.50;;;23.07;36.84
71938;BME280;59810;48.800;9.086;2023-06-04T10:54:37;97746.16;;;23.22;37.43
71938;BME280;59810;48.800;9.086;2023-06-04T10:57:18;97747.75;;;23.32;36.13
71938;BME280;59810;48.800;9.086;2023-06-04T10:59:54;97748.97;;;23.60;37.18
71938;BME280;59810;48.800;9.086;2023-06-04T11:02:22;97747.69;;;23.49;35.86
71938;BME280;59810;48.800;9.086;2023-06-04T11:04:58;97748.34;;;23.46;35.38
71938;BME280;59810;48.800;9.086;2023-06-04T11:07:29;97739.22;;;23.63;35.88
71938;BME280;59810;48.800;9.086;2023-06-04T11:09:55;97742.03;;;23.83;35.40
71938;BME280;59810;48.800;9.086;2023-06-04T11:12:20;97740.75;;;24.02;34.96
71938;BME280;59810;48.800;9.086;2023-06-04T11:14:58;97742.56;;;23.98;34.80
71938;BME280;59810;48.800;9.086;2023-06-04T11:17:24;97742.69;;;23.80;33.73
71938;BME280;59810;48.800;9.086;2023-06-04T11:19:50;97742.03;;;23.83;33.63
71938;BME280;59810;48.800;9.086;2023-06-04T11:22:15;97746.03;;;24.15;35.40
71938;BME280;59810;48.800;9.086;2023-06-04T11:24:44;97735.78;;;24.45;35.68
71938;BME280;59810;48.800;9.086;2023-06-04T11:27:09;97743.69;;;24.68;33.73
71938;BME280;59810;48.800;9.086;2023-06-04T11:29:36;97741.44;;;24.82;33.61
71938;BME280;59810;48.800;9.086;2023-06-04T11:32:01;97744.44;;;25.10;34.92
71938;BME280;59810;48.800;9.086;2023-06-04T11:34:28;97738.63;;;25.48;33.03
71938;BME280;59810;48.800;9.086;2023-06-04T11:36:54;97743.50;;;25.76;32.43
71938;BME280;59810;48.800;9.086;2023-06-04T11:39:22;97739.91;;;25.87;31.89
71938;BME280;59810;48.800;9.086;2023-06-04T11:41:50;97753.03;;;25.54;30.88
71938;BME280;59810;48.800;9.086;2023-06-04T11:44:18;97746.00;;;25.68;29.47
71938;BME280;59810;48.800;9.086;2023-06-04T11:46:44;97738.97;;;25.47;31.35
71938;BME280;59810;48.800;9.086;2023-06-04T11:49:17;97729.16;;;25.49;30.92
71938;BME280;59810;48.800;9.086;2023-06-04T11:51:52;97738.53;;;25.69;29.70
71938;BME280;59810;48.800;9.086;2023-06-04T11:54:19;97732.44;;;25.76;29.52
71938;BME280;59810;48.800;9.086;2023-06-04T11:56:46;97728.94;;;25.42;30.94
71938;BME280;59810;48.800;9.086;2023-06-04T11:59:19;97737.63;;;25.77;32.03
71938;BME280;59810;48.800;9.086;2023-06-04T12:01:46;97737.97;;;25.76;31.30
71938;BME280;59810;48.800;9.086;2023-06-04T12:04:19;97740.56;;;25.48;32.55
71938;BME280;59810;48.800;9.086;2023-06-04T12:06:54;97739.06;;;25.62;31.31
71938;BME280;59810;48.800;9.086;2023-06-04T12:09:22;97731.75;;;25.79;31.67
71938;BME280;59810;48.800;9.086;2023-06-04T12:11:48;97738.41;;;25.90;30.21
71938;BME280;59810;48.800;9.086;2023-06-04T12:14:17;97732.06;;;25.89;28.85
71938;BME280;59810;48.800;9.086;2023-06-04T12:16:58;97720.13;;;26.25;29.62
71938;BME280;59810;48.800;9.086;2023-06-04T12:19:28;97732.09;;;26.29;29.70
71938;BME280;59810;48.800;9.086;2023-06-04T12:22:04;97725.25;;;26.11;30.22
71938;BME280;59810;48.800;9.086;2023-06-04T12:24:31;97715.59;;;26.33;29.49
71938;BME280;59810;48.800;9.086;2023-06-04T12:27:03;97713.72;;;26.09;30.37
71938;BME280;59810;48.800;9.086;2023-06-04T12:29:31;97727.47;;;26.46;29.20
71938;BME280;59810;48.800;9.086;2023-06-04T12:32:09;97718.13;;;26.50;28.08
71938;BME280;59810;48.800;9.086;2023-06-04T12:34:38;97721.56;;;26.07;28.43
71938;BME280;59810;48.800;9.086;2023-06-04T12:37:08;97719.75;;;25.87;28.98
71938;BME280;59810;48.800;9.086;2023-06-04T12:39:36;97719.50;;;25.92;29.40
71938;BME280;59810;48.800;9.086;2023-06-04T12:42:06;97724.03;;;26.24;28.97
71938;BME280;59810;48.800;9.086;2023-06-04T12:44:32;97718.38;;;26.33;28.14
71938;BME280;59810;48.800;9.086;2023-06-04T12:46:58;97711.94;;;26.69;27.53
71938;BME280;59810;48.800;9.086;2023-06-04T12:49:23;97713.84;;;26.96;28.44
71938;BME280;59810;48.800;9.086;2023-06-04T12:51:48;97720.31;;;25.92;28.89
71938;BME280;59810;48.800;9.086;2023-06-04T12:54:14;97714.50;;;25.36;30.18
71938;BME280;59810;48.800;9.086;2023-06-04T12:56:40;97707.03;;;25.25;30.60
71938;BME280;59810;48.800;9.086;2023-06-04T12:59:08;97712.78;;;25.07;30.63
71938;BME280;59810;48.800;9.086;2023-06-04T13:01:36;97710.25;;;25.27;30.65
71938;BME280;59810;48.800;9.086;2023-06-04T13:04:04;97700.47;;;25.54;30.10
71938;BME280;59810;48.800;9.086;2023-06-04T13:06:34;97693.03;;;26.19;28.94
71938;BME280;59810;48.800;9.086;2023-06-04T13:09:04;97698.94;;;26.17;27.82
71938;BME280;59810;48.800;9.086;2023-06-04T13:11:36;97687.09;;;26.45;29.64
71938;BME280;59810;48.800;9.086;2023-06-04T13:14:07;97690.72;;;26.61;28.16